Kythera — PE6932 — position and weather

sailwx.info

Track history (hours):
 
Tides and Currents Weather Stations Pressure Air Temp Water Temp Dewpoint Dewpoint Depression Visibility Wind Speed Wind Dir Waves Ship Positions

Kythera

Last reported at 2017-Aug-23 15:50 UTC. Time now 2017-Sep-26 22:01 UTC.
Position N 28°54' W 013°41'.
Warning: this ship's position is 34 days out of date.

Length 17 m.

Type: Ship. MMSI: 244820380.

Date/timePositionNaut miles runAvg speedWind from/ knotsBaromVisibWave heightAir tempDewpointWater temp
2017-Aug-23 15:50N 28°54' W 013°41'1 4.2
2017-Aug-23 15:30N 28°54' W 013°39'3 5.7
2017-Aug-23 15:00N 28°55' W 013°36'7 7.2
2017-Aug-23 14:00N 28°58' W 013°28'4 8.3
2017-Aug-23 13:30N 28°60' W 013°24'4 7.6
2017-Aug-23 13:00N 29°02' W 013°21'18 6.5
2017-Aug-23 10:14N 29°20' W 013°24'13 7.5
2017-Aug-23 08:27N 29°33' W 013°26'5 7.1
2017-Aug-23 07:47N 29°38' W 013°26'2 7.1
2017-Aug-23 07:27N 29°40' W 013°25'5 7.6
2017-Aug-23 06:46N 29°45' W 013°26'59 6.3
2017-Aug-22 21:29N 30°44' W 013°22'48 6.2
2017-Aug-22 13:50N 31°32' W 013°20'15 5.8
2017-Aug-22 11:18N 31°46' W 013°19'7 6.1
2017-Aug-22 10:10N 31°53' W 013°19'12 5.8
2017-Aug-22 08:10N 32°05' W 013°18'  
2017-Aug-19 16:37N 37°59' W 011°19'8 8.3
2017-Aug-19 15:41N 38°06' W 011°14'7 8.3
2017-Aug-19 14:48N 38°12' W 011°09'44 7.8
2017-Aug-19 09:14N 38°49' W 010°39'3 7.5
2017-Aug-19 08:47N 38°51' W 010°37'8 7.7
2017-Aug-19 07:44N 38°58' W 010°31'22 7.5
2017-Aug-19 04:49N 39°17' W 010°16'  
Track history (hours):
 
Tides and Currents Weather Stations Pressure Air Temp Water Temp Dewpoint Dewpoint Depression Visibility Wind Speed Wind Dir Waves Ship Positions

Kythera

Last reported at 2017-Aug-23 15:50 UTC. Time now 2017-Sep-26 22:01 UTC.
Position N 28°54' W 013°41'.
Warning: this ship's position is 34 days out of date.

Length 17 m.

Type: Ship. MMSI: 244820380.

Date/timePositionNaut miles runAvg speedWind from/ knotsBaromVisibWave heightAir tempDewpointWater temp
2017-Aug-23 15:50N 28°54' W 013°41'1 4.2
2017-Aug-23 15:30N 28°54' W 013°39'3 5.7
2017-Aug-23 15:00N 28°55' W 013°36'7 7.2
2017-Aug-23 14:00N 28°58' W 013°28'4 8.3
2017-Aug-23 13:30N 28°60' W 013°24'4 7.6
2017-Aug-23 13:00N 29°02' W 013°21'18 6.5
2017-Aug-23 10:14N 29°20' W 013°24'13 7.5
2017-Aug-23 08:27N 29°33' W 013°26'5 7.1
2017-Aug-23 07:47N 29°38' W 013°26'2 7.1
2017-Aug-23 07:27N 29°40' W 013°25'5 7.6
2017-Aug-23 06:46N 29°45' W 013°26'59 6.3
2017-Aug-22 21:29N 30°44' W 013°22'48 6.2
2017-Aug-22 13:50N 31°32' W 013°20'15 5.8
2017-Aug-22 11:18N 31°46' W 013°19'7 6.1
2017-Aug-22 10:10N 31°53' W 013°19'12 5.8
2017-Aug-22 08:10N 32°05' W 013°18'  
2017-Aug-19 16:37N 37°59' W 011°19'8 8.3
2017-Aug-19 15:41N 38°06' W 011°14'7 8.3
2017-Aug-19 14:48N 38°12' W 011°09'44 7.8
2017-Aug-19 09:14N 38°49' W 010°39'3 7.5
2017-Aug-19 08:47N 38°51' W 010°37'8 7.7
2017-Aug-19 07:44N 38°58' W 010°31'22 7.5
2017-Aug-19 04:49N 39°17' W 010°16'  

Dump ship's entire track history